sensor_id;sensor_type;location;lat;lon;timestamp;P1;durP1;ratioP1;P2;durP2;ratioP2
82873;SDS011;72647;51.622;7.540;2024-02-21T00:00:06;17.90;;;6.03;;
82873;SDS011;72647;51.622;7.540;2024-02-21T00:02:07;18.33;;;6.45;;
82873;SDS011;72647;51.622;7.540;2024-02-21T00:04:07;18.50;;;5.60;;
82873;SDS011;72647;51.622;7.540;2024-02-21T00:06:07;18.27;;;6.43;;
82873;SDS011;72647;51.622;7.540;2024-02-21T00:08:07;17.90;;;5.73;;
82873;SDS011;72647;51.622;7.540;2024-02-21T00:10:07;20.33;;;5.83;;
82873;SDS011;72647;51.622;7.540;2024-02-21T00:12:08;14.65;;;5.95;;
82873;SDS011;72647;51.622;7.540;2024-02-21T00:14:09;20.27;;;6.97;;
82873;SDS011;72647;51.622;7.540;2024-02-21T00:16:10;16.98;;;6.15;;
82873;SDS011;72647;51.622;7.540;2024-02-21T00:20:11;19.53;;;6.00;;
82873;SDS011;72647;51.622;7.540;2024-02-21T00:22:11;21.38;;;6.75;;
82873;SDS011;72647;51.622;7.540;2024-02-21T00:24:11;21.40;;;6.53;;
82873;SDS011;72647;51.622;7.540;2024-02-21T00:26:15;19.67;;;7.07;;
82873;SDS011;72647;51.622;7.540;2024-02-21T00:28:15;18.58;;;6.53;;
82873;SDS011;72647;51.622;7.540;2024-02-21T00:30:15;17.33;;;7.53;;
82873;SDS011;72647;51.622;7.540;2024-02-21T00:32:16;14.17;;;6.60;;
82873;SDS011;72647;51.622;7.540;2024-02-21T00:34:16;19.70;;;7.77;;
82873;SDS011;72647;51.622;7.540;2024-02-21T00:36:16;15.93;;;5.93;;
82873;SDS011;72647;51.622;7.540;2024-02-21T00:38:16;20.30;;;7.23;;
82873;SDS011;72647;51.622;7.540;2024-02-21T00:40:17;21.90;;;7.70;;
82873;SDS011;72647;51.622;7.540;2024-02-21T00:42:20;19.55;;;7.03;;
82873;SDS011;72647;51.622;7.540;2024-02-21T00:44:21;22.38;;;7.90;;
82873;SDS011;72647;51.622;7.540;2024-02-21T00:46:21;24.30;;;8.87;;
82873;SDS011;72647;51.622;7.540;2024-02-21T00:48:22;21.73;;;7.13;;
82873;SDS011;72647;51.622;7.540;2024-02-21T00:50:22;23.25;;;8.85;;
82873;SDS011;72647;51.622;7.540;2024-02-21T00:52:22;19.40;;;7.80;;
82873;SDS011;72647;51.622;7.540;2024-02-21T00:54:23;22.67;;;7.60;;
82873;SDS011;72647;51.622;7.540;2024-02-21T00:56:23;25.33;;;9.52;;
82873;SDS011;72647;51.622;7.540;2024-02-21T00:58:23;24.13;;;9.07;;
82873;SDS011;72647;51.622;7.540;2024-02-21T01:00:23;21.20;;;8.13;;
82873;SDS011;72647;51.622;7.540;2024-02-21T01:02:24;19.03;;;7.30;;
82873;SDS011;72647;51.622;7.540;2024-02-21T01:04:24;19.52;;;7.10;;
82873;SDS011;72647;51.622;7.540;2024-02-21T01:06:24;22.57;;;7.70;;
82873;SDS011;72647;51.622;7.540;2024-02-21T01:08:25;16.65;;;6.82;;
82873;SDS011;72647;51.622;7.540;2024-02-21T01:10:25;18.73;;;6.30;;
82873;SDS011;72647;51.622;7.540;2024-02-21T01:12:26;18.90;;;7.97;;
82873;SDS011;72647;51.622;7.540;2024-02-21T01:16:26;14.40;;;6.20;;
82873;SDS011;72647;51.622;7.540;2024-02-21T01:18:27;19.43;;;7.97;;
82873;SDS011;72647;51.622;7.540;2024-02-21T01:20:27;21.37;;;8.30;;
82873;SDS011;72647;51.622;7.540;2024-02-21T01:22:27;22.08;;;7.22;;
82873;SDS011;72647;51.622;7.540;2024-02-21T01:24:28;16.40;;;6.70;;
82873;SDS011;72647;51.622;7.540;2024-02-21T01:26:28;17.70;;;7.20;;
82873;SDS011;72647;51.622;7.540;2024-02-21T01:28:29;20.07;;;7.97;;
82873;SDS011;72647;51.622;7.540;2024-02-21T01:32:30;16.30;;;7.37;;
82873;SDS011;72647;51.622;7.540;2024-02-21T01:34:31;21.35;;;7.88;;
82873;SDS011;72647;51.622;7.540;2024-02-21T01:36:31;21.02;;;7.07;;
82873;SDS011;72647;51.622;7.540;2024-02-21T01:38:31;22.95;;;7.45;;
82873;SDS011;72647;51.622;7.540;2024-02-21T01:40:32;22.42;;;8.02;;
82873;SDS011;72647;51.622;7.540;2024-02-21T01:42:32;16.63;;;7.33;;
82873;SDS011;72647;51.622;7.540;2024-02-21T01:44:32;20.13;;;6.97;;
82873;SDS011;72647;51.622;7.540;2024-02-21T01:46:32;23.30;;;6.83;;
82873;SDS011;72647;51.622;7.540;2024-02-21T01:48:33;21.13;;;7.78;;
82873;SDS011;72647;51.622;7.540;2024-02-21T01:50:34;23.08;;;7.30;;
82873;SDS011;72647;51.622;7.540;2024-02-21T01:52:36;20.45;;;7.15;;
82873;SDS011;72647;51.622;7.540;2024-02-21T01:54:37;16.23;;;5.82;;
82873;SDS011;72647;51.622;7.540;2024-02-21T01:56:37;18.75;;;7.38;;
82873;SDS011;72647;51.622;7.540;2024-02-21T01:58:38;16.20;;;6.50;;
82873;SDS011;72647;51.622;7.540;2024-02-21T02:00:40;17.45;;;6.50;;
82873;SDS011;72647;51.622;7.540;2024-02-21T02:02:40;20.20;;;8.10;;
82873;SDS011;72647;51.622;7.540;2024-02-21T02:04:41;20.23;;;6.95;;
82873;SDS011;72647;51.622;7.540;2024-02-21T02:06:42;23.40;;;7.43;;
82873;SDS011;72647;51.622;7.540;2024-02-21T02:08:43;24.83;;;8.13;;
82873;SDS011;72647;51.622;7.540;2024-02-21T02:10:43;23.37;;;7.60;;
82873;SDS011;72647;51.622;7.540;2024-02-21T02:12:43;19.60;;;7.13;;
82873;SDS011;72647;51.622;7.540;2024-02-21T02:14:43;18.37;;;6.90;;
82873;SDS011;72647;51.622;7.540;2024-02-21T02:16:46;22.57;;;7.83;;
82873;SDS011;72647;51.622;7.540;2024-02-21T02:18:46;18.73;;;7.07;;
82873;SDS011;72647;51.622;7.540;2024-02-21T02:20:46;18.75;;;7.65;;
82873;SDS011;72647;51.622;7.540;2024-02-21T02:22:47;24.73;;;7.97;;
82873;SDS011;72647;51.622;7.540;2024-02-21T02:24:49;20.70;;;7.40;;
82873;SDS011;72647;51.622;7.540;2024-02-21T02:26:49;20.30;;;7.95;;
82873;SDS011;72647;51.622;7.540;2024-02-21T02:28:49;21.08;;;8.48;;
82873;SDS011;72647;51.622;7.540;2024-02-21T02:30:50;22.88;;;8.55;;
82873;SDS011;72647;51.622;7.540;2024-02-21T02:32:50;17.98;;;7.22;;
82873;SDS011;72647;51.622;7.540;2024-02-21T02:34:50;24.63;;;8.90;;
82873;SDS011;72647;51.622;7.540;2024-02-21T02:36:51;21.30;;;7.80;;
82873;SDS011;72647;51.622;7.540;2024-02-21T02:38:51;18.25;;;6.72;;
82873;SDS011;72647;51.622;7.540;2024-02-21T02:40:51;17.13;;;6.67;;
82873;SDS011;72647;51.622;7.540;2024-02-21T02:42:51;23.27;;;7.93;;
82873;SDS011;72647;51.622;7.540;2024-02-21T02:44:54;14.63;;;6.25;;
82873;SDS011;72647;51.622;7.540;2024-02-21T02:46:55;17.20;;;6.13;;
82873;SDS011;72647;51.622;7.540;2024-02-21T02:48:55;20.17;;;7.68;;
82873;SDS011;72647;51.622;7.540;2024-02-21T02:50:55;23.80;;;8.57;;
82873;SDS011;72647;51.622;7.540;2024-02-21T02:52:55;13.82;;;5.95;;
82873;SDS011;72647;51.622;7.540;2024-02-21T02:54:56;19.70;;;6.90;;
82873;SDS011;72647;51.622;7.540;2024-02-21T02:56:56;16.40;;;7.10;;
82873;SDS011;72647;51.622;7.540;2024-02-21T02:58:56;16.53;;;6.90;;
82873;SDS011;72647;51.622;7.540;2024-02-21T03:00:57;20.27;;;8.00;;
82873;SDS011;72647;51.622;7.540;2024-02-21T03:02:57;18.80;;;6.37;;
82873;SDS011;72647;51.622;7.540;2024-02-21T03:04:57;16.52;;;6.78;;
82873;SDS011;72647;51.622;7.540;2024-02-21T03:06:57;19.17;;;6.50;;
82873;SDS011;72647;51.622;7.540;2024-02-21T03:08:58;16.70;;;6.10;;
82873;SDS011;72647;51.622;7.540;2024-02-21T03:10:59;19.60;;;6.45;;
82873;SDS011;72647;51.622;7.540;2024-02-21T03:13:00;17.98;;;7.32;;
82873;SDS011;72647;51.622;7.540;2024-02-21T03:15:00;16.80;;;6.55;;
82873;SDS011;72647;51.622;7.540;2024-02-21T03:17:01;15.95;;;5.65;;
82873;SDS011;72647;51.622;7.540;2024-02-21T03:19:01;15.18;;;6.18;;
82873;SDS011;72647;51.622;7.540;2024-02-21T03:21:01;20.40;;;6.73;;
82873;SDS011;72647;51.622;7.540;2024-02-21T03:23:02;14.65;;;6.47;;
82873;SDS011;72647;51.622;7.540;2024-02-21T03:25:02;17.23;;;5.67;;
82873;SDS011;72647;51.622;7.540;2024-02-21T03:27:02;16.73;;;6.63;;
82873;SDS011;72647;51.622;7.540;2024-02-21T03:29:06;15.77;;;6.43;;
82873;SDS011;72647;51.622;7.540;2024-02-21T03:31:06;12.98;;;5.10;;
82873;SDS011;72647;51.622;7.540;2024-02-21T03:33:06;15.67;;;5.73;;
82873;SDS011;72647;51.622;7.540;2024-02-21T03:35:07;21.13;;;7.57;;
82873;SDS011;72647;51.622;7.540;2024-02-21T03:37:07;19.77;;;6.50;;
82873;SDS011;72647;51.622;7.540;2024-02-21T03:39:07;13.85;;;6.43;;
82873;SDS011;72647;51.622;7.540;2024-02-21T03:43:09;15.68;;;6.03;;
82873;SDS011;72647;51.622;7.540;2024-02-21T03:45:09;17.02;;;5.88;;
82873;SDS011;72647;51.622;7.540;2024-02-21T03:47:09;15.60;;;6.43;;
82873;SDS011;72647;51.622;7.540;2024-02-21T03:49:11;22.42;;;7.30;;
82873;SDS011;72647;51.622;7.540;2024-02-21T03:51:11;19.73;;;7.10;;
82873;SDS011;72647;51.622;7.540;2024-02-21T03:53:12;20.37;;;8.70;;
82873;SDS011;72647;51.622;7.540;2024-02-21T03:55:12;24.45;;;6.72;;
82873;SDS011;72647;51.622;7.540;2024-02-21T03:57:12;16.00;;;7.50;;
82873;SDS011;72647;51.622;7.540;2024-02-21T03:59:13;18.00;;;6.90;;
82873;SDS011;72647;51.622;7.540;2024-02-21T04:01:15;14.48;;;6.45;;
82873;SDS011;72647;51.622;7.540;2024-02-21T04:03:15;16.17;;;6.80;;
82873;SDS011;72647;51.622;7.540;2024-02-21T04:05:15;19.07;;;6.23;;
82873;SDS011;72647;51.622;7.540;2024-02-21T04:07:16;14.95;;;6.88;;
82873;SDS011;72647;51.622;7.540;2024-02-21T04:09:17;18.05;;;6.70;;
82873;SDS011;72647;51.622;7.540;2024-02-21T04:11:17;17.83;;;6.00;;
82873;SDS011;72647;51.622;7.540;2024-02-21T04:13:18;21.23;;;6.50;;
82873;SDS011;72647;51.622;7.540;2024-02-21T04:15:19;14.85;;;5.78;;
82873;SDS011;72647;51.622;7.540;2024-02-21T04:17:19;19.88;;;5.88;;
82873;SDS011;72647;51.622;7.540;2024-02-21T04:19:19;13.73;;;5.23;;
82873;SDS011;72647;51.622;7.540;2024-02-21T04:21:19;14.70;;;5.93;;
82873;SDS011;72647;51.622;7.540;2024-02-21T04:23:20;12.37;;;6.07;;
82873;SDS011;72647;51.622;7.540;2024-02-21T04:25:20;16.63;;;6.03;;
82873;SDS011;72647;51.622;7.540;2024-02-21T04:27:20;13.77;;;5.80;;
82873;SDS011;72647;51.622;7.540;2024-02-21T04:29:21;16.00;;;5.80;;
82873;SDS011;72647;51.622;7.540;2024-02-21T04:31:21;16.50;;;5.77;;
82873;SDS011;72647;51.622;7.540;2024-02-21T04:33:21;20.33;;;6.57;;
82873;SDS011;72647;51.622;7.540;2024-02-21T04:35:21;16.83;;;6.22;;
82873;SDS011;72647;51.622;7.540;2024-02-21T04:37:22;17.02;;;5.80;;
82873;SDS011;72647;51.622;7.540;2024-02-21T04:39:22;17.00;;;6.50;;
82873;SDS011;72647;51.622;7.540;2024-02-21T04:41:22;16.03;;;6.43;;
82873;SDS011;72647;51.622;7.540;2024-02-21T04:43:22;16.13;;;5.67;;
82873;SDS011;72647;51.622;7.540;2024-02-21T04:45:23;12.30;;;5.93;;
82873;SDS011;72647;51.622;7.540;2024-02-21T04:47:24;13.87;;;6.00;;
82873;SDS011;72647;51.622;7.540;2024-02-21T04:49:25;15.25;;;6.00;;
82873;SDS011;72647;51.622;7.540;2024-02-21T04:51:25;15.60;;;6.20;;
82873;SDS011;72647;51.622;7.540;2024-02-21T04:53:25;12.63;;;5.07;;
82873;SDS011;72647;51.622;7.540;2024-02-21T04:55:25;19.80;;;5.87;;
82873;SDS011;72647;51.622;7.540;2024-02-21T04:57:25;14.30;;;5.80;;
82873;SDS011;72647;51.622;7.540;2024-02-21T04:59:26;10.40;;;5.13;;
82873;SDS011;72647;51.622;7.540;2024-02-21T05:01:27;15.13;;;5.77;;
82873;SDS011;72647;51.622;7.540;2024-02-21T05:03:27;16.20;;;6.15;;
82873;SDS011;72647;51.622;7.540;2024-02-21T05:05:28;16.63;;;5.93;;
82873;SDS011;72647;51.622;7.540;2024-02-21T05:07:28;13.13;;;5.27;;
82873;SDS011;72647;51.622;7.540;2024-02-21T05:09:28;14.13;;;6.17;;
82873;SDS011;72647;51.622;7.540;2024-02-21T05:11:28;16.37;;;6.47;;
82873;SDS011;72647;51.622;7.540;2024-02-21T05:13:29;12.23;;;5.70;;
82873;SDS011;72647;51.622;7.540;2024-02-21T05:15:29;13.87;;;5.77;;
82873;SDS011;72647;51.622;7.540;2024-02-21T05:17:29;16.90;;;6.63;;
82873;SDS011;72647;51.622;7.540;2024-02-21T05:19:29;17.27;;;5.80;;
82873;SDS011;72647;51.622;7.540;2024-02-21T05:21:30;16.97;;;6.07;;
82873;SDS011;72647;51.622;7.540;2024-02-21T05:23:30;14.48;;;5.93;;
82873;SDS011;72647;51.622;7.540;2024-02-21T05:25:30;15.90;;;5.70;;
82873;SDS011;72647;51.622;7.540;2024-02-21T05:27:31;16.80;;;6.05;;
82873;SDS011;72647;51.622;7.540;2024-02-21T05:29:31;11.63;;;5.33;;
82873;SDS011;72647;51.622;7.540;2024-02-21T05:33:49;18.98;;;5.72;;
82873;SDS011;72647;51.622;7.540;2024-02-21T05:35:51;13.07;;;5.13;;
82873;SDS011;72647;51.622;7.540;2024-02-21T05:39:52;11.27;;;4.63;;
82873;SDS011;72647;51.622;7.540;2024-02-21T05:41:52;15.20;;;5.50;;
82873;SDS011;72647;51.622;7.540;2024-02-21T05:43:53;13.40;;;5.10;;
82873;SDS011;72647;51.622;7.540;2024-02-21T05:45:53;13.47;;;5.00;;
82873;SDS011;72647;51.622;7.540;2024-02-21T05:47:53;16.35;;;4.95;;
82873;SDS011;72647;51.622;7.540;2024-02-21T05:49:53;14.18;;;4.78;;
82873;SDS011;72647;51.622;7.540;2024-02-21T05:51:54;12.70;;;5.68;;
82873;SDS011;72647;51.622;7.540;2024-02-21T05:53:54;12.97;;;4.67;;
82873;SDS011;72647;51.622;7.540;2024-02-21T05:55:54;11.63;;;4.70;;
82873;SDS011;72647;51.622;7.540;2024-02-21T05:57:55;13.32;;;5.88;;
82873;SDS011;72647;51.622;7.540;2024-02-21T05:59:55;10.75;;;4.55;;
82873;SDS011;72647;51.622;7.540;2024-02-21T06:01:56;12.50;;;4.80;;
82873;SDS011;72647;51.622;7.540;2024-02-21T06:03:57;11.75;;;4.72;;
82873;SDS011;72647;51.622;7.540;2024-02-21T06:05:58;13.18;;;4.85;;
82873;SDS011;72647;51.622;7.540;2024-02-21T06:07:58;9.73;;;5.35;;
82873;SDS011;72647;51.622;7.540;2024-02-21T06:09:59;11.43;;;4.70;;
82873;SDS011;72647;51.622;7.540;2024-02-21T06:11:59;10.35;;;4.75;;
82873;SDS011;72647;51.622;7.540;2024-02-21T06:14:00;12.55;;;5.25;;
82873;SDS011;72647;51.622;7.540;2024-02-21T06:16:00;10.37;;;4.97;;
82873;SDS011;72647;51.622;7.540;2024-02-21T06:18:00;13.50;;;5.23;;
82873;SDS011;72647;51.622;7.540;2024-02-21T06:20:00;10.70;;;4.27;;
82873;SDS011;72647;51.622;7.540;2024-02-21T06:22:00;11.27;;;4.30;;
82873;SDS011;72647;51.622;7.540;2024-02-21T06:24:01;12.23;;;5.03;;
82873;SDS011;72647;51.622;7.540;2024-02-21T06:26:01;14.97;;;4.73;;
82873;SDS011;72647;51.622;7.540;2024-02-21T06:28:02;11.90;;;3.92;;
82873;SDS011;72647;51.622;7.540;2024-02-21T06:30:02;14.05;;;4.35;;
82873;SDS011;72647;51.622;7.540;2024-02-21T06:32:03;9.38;;;3.63;;
82873;SDS011;72647;51.622;7.540;2024-02-21T06:34:03;10.30;;;4.13;;
82873;SDS011;72647;51.622;7.540;2024-02-21T06:36:04;11.10;;;3.30;;
82873;SDS011;72647;51.622;7.540;2024-02-21T06:38:04;11.40;;;4.28;;
82873;SDS011;72647;51.622;7.540;2024-02-21T06:40:05;9.03;;;3.83;;
82873;SDS011;72647;51.622;7.540;2024-02-21T06:42:05;16.67;;;4.78;;
82873;SDS011;72647;51.622;7.540;2024-02-21T06:44:06;9.15;;;4.25;;
82873;SDS011;72647;51.622;7.540;2024-02-21T06:46:06;14.18;;;3.75;;
82873;SDS011;72647;51.622;7.540;2024-02-21T06:48:06;8.43;;;3.70;;
82873;SDS011;72647;51.622;7.540;2024-02-21T06:50:06;15.93;;;3.93;;
82873;SDS011;72647;51.622;7.540;2024-02-21T06:52:07;11.57;;;4.50;;
82873;SDS011;72647;51.622;7.540;2024-02-21T06:54:07;12.23;;;4.17;;
82873;SDS011;72647;51.622;7.540;2024-02-21T06:56:07;9.90;;;3.70;;
82873;SDS011;72647;51.622;7.540;2024-02-21T06:58:07;11.97;;;3.83;;
82873;SDS011;72647;51.622;7.540;2024-02-21T07:00:11;8.52;;;3.60;;
82873;SDS011;72647;51.622;7.540;2024-02-21T07:02:12;7.05;;;3.40;;
82873;SDS011;72647;51.622;7.540;2024-02-21T07:04:12;13.40;;;4.20;;
82873;SDS011;72647;51.622;7.540;2024-02-21T07:06:13;8.45;;;3.50;;
82873;SDS011;72647;51.622;7.540;2024-02-21T07:08:13;10.65;;;3.83;;
82873;SDS011;72647;51.622;7.540;2024-02-21T07:10:13;7.80;;;3.30;;
82873;SDS011;72647;51.622;7.540;2024-02-21T07:12:14;11.15;;;3.45;;
82873;SDS011;72647;51.622;7.540;2024-02-21T07:14:14;11.03;;;3.53;;
82873;SDS011;72647;51.622;7.540;2024-02-21T07:16:15;8.93;;;3.63;;
82873;SDS011;72647;51.622;7.540;2024-02-21T07:18:15;6.67;;;3.00;;
82873;SDS011;72647;51.622;7.540;2024-02-21T07:20:15;9.43;;;3.55;;
82873;SDS011;72647;51.622;7.540;2024-02-21T07:22:16;9.33;;;3.00;;
82873;SDS011;72647;51.622;7.540;2024-02-21T07:24:16;7.93;;;3.20;;
82873;SDS011;72647;51.622;7.540;2024-02-21T07:26:16;9.65;;;3.20;;
82873;SDS011;72647;51.622;7.540;2024-02-21T07:28:17;8.50;;;2.97;;
82873;SDS011;72647;51.622;7.540;2024-02-21T07:30:17;8.32;;;2.75;;
82873;SDS011;72647;51.622;7.540;2024-02-21T07:32:17;9.77;;;3.05;;
82873;SDS011;72647;51.622;7.540;2024-02-21T07:34:18;7.22;;;3.20;;
82873;SDS011;72647;51.622;7.540;2024-02-21T07:36:28;9.53;;;3.03;;
82873;SDS011;72647;51.622;7.540;2024-02-21T07:38:29;5.72;;;2.95;;
82873;SDS011;72647;51.622;7.540;2024-02-21T07:40:30;6.38;;;2.80;;
82873;SDS011;72647;51.622;7.540;2024-02-21T07:42:30;10.25;;;2.90;;
82873;SDS011;72647;51.622;7.540;2024-02-21T07:44:31;6.45;;;3.13;;
82873;SDS011;72647;51.622;7.540;2024-02-21T07:46:32;9.15;;;2.97;;
82873;SDS011;72647;51.622;7.540;2024-02-21T07:48:32;5.50;;;2.63;;
82873;SDS011;72647;51.622;7.540;2024-02-21T07:50:33;8.57;;;3.20;;
82873;SDS011;72647;51.622;7.540;2024-02-21T07:52:33;7.63;;;2.70;;
82873;SDS011;72647;51.622;7.540;2024-02-21T07:54:33;7.85;;;2.95;;
82873;SDS011;72647;51.622;7.540;2024-02-21T07:56:34;7.55;;;2.80;;
82873;SDS011;72647;51.622;7.540;2024-02-21T07:58:34;7.72;;;2.83;;
82873;SDS011;72647;51.622;7.540;2024-02-21T08:00:34;7.70;;;3.20;;
82873;SDS011;72647;51.622;7.540;2024-02-21T08:02:35;9.53;;;3.20;;
82873;SDS011;72647;51.622;7.540;2024-02-21T08:04:35;6.30;;;3.00;;
82873;SDS011;72647;51.622;7.540;2024-02-21T08:06:35;11.30;;;3.43;;
82873;SDS011;72647;51.622;7.540;2024-02-21T08:08:35;13.82;;;3.60;;
82873;SDS011;72647;51.622;7.540;2024-02-21T08:10:36;6.10;;;2.75;;
82873;SDS011;72647;51.622;7.540;2024-02-21T08:12:36;10.13;;;3.35;;
82873;SDS011;72647;51.622;7.540;2024-02-21T08:14:37;6.65;;;3.08;;
82873;SDS011;72647;51.622;7.540;2024-02-21T08:16:37;7.70;;;2.95;;
82873;SDS011;72647;51.622;7.540;2024-02-21T08:18:38;6.73;;;2.83;;
82873;SDS011;72647;51.622;7.540;2024-02-21T08:20:38;8.45;;;3.25;;
82873;SDS011;72647;51.622;7.540;2024-02-21T08:22:39;7.83;;;3.10;;
82873;SDS011;72647;51.622;7.540;2024-02-21T08:24:39;9.25;;;3.20;;
82873;SDS011;72647;51.622;7.540;2024-02-21T08:26:41;8.30;;;2.83;;
82873;SDS011;72647;51.622;7.540;2024-02-21T08:28:41;9.38;;;3.30;;
82873;SDS011;72647;51.622;7.540;2024-02-21T08:30:42;9.70;;;3.50;;
82873;SDS011;72647;51.622;7.540;2024-02-21T08:32:47;7.90;;;3.47;;
82873;SDS011;72647;51.622;7.540;2024-02-21T08:34:48;9.27;;;3.38;;
82873;SDS011;72647;51.622;7.540;2024-02-21T08:36:48;10.40;;;3.25;;
82873;SDS011;72647;51.622;7.540;2024-02-21T08:38:48;10.13;;;3.03;;
82873;SDS011;72647;51.622;7.540;2024-02-21T08:40:48;8.57;;;3.47;;
82873;SDS011;72647;51.622;7.540;2024-02-21T08:42:49;7.68;;;3.15;;
82873;SDS011;72647;51.622;7.540;2024-02-21T08:44:49;11.25;;;3.60;;
82873;SDS011;72647;51.622;7.540;2024-02-21T08:46:50;7.10;;;2.80;;
82873;SDS011;72647;51.622;7.540;2024-02-21T08:48:50;11.77;;;3.35;;
82873;SDS011;72647;51.622;7.540;2024-02-21T08:50:55;8.93;;;3.30;;
82873;SDS011;72647;51.622;7.540;2024-02-21T08:52:55;6.00;;;3.03;;
82873;SDS011;72647;51.622;7.540;2024-02-21T08:54:55;11.80;;;3.50;;
82873;SDS011;72647;51.622;7.540;2024-02-21T08:56:56;8.90;;;3.60;;
82873;SDS011;72647;51.622;7.540;2024-02-21T08:58:56;8.60;;;3.63;;
82873;SDS011;72647;51.622;7.540;2024-02-21T09:02:58;7.20;;;2.97;;
82873;SDS011;72647;51.622;7.540;2024-02-21T09:04:58;8.67;;;2.87;;
82873;SDS011;72647;51.622;7.540;2024-02-21T09:06:58;5.97;;;2.90;;
82873;SDS011;72647;51.622;7.540;2024-02-21T09:08:58;8.43;;;2.78;;
82873;SDS011;72647;51.622;7.540;2024-02-21T09:11:00;9.07;;;2.95;;
82873;SDS011;72647;51.622;7.540;2024-02-21T09:13:03;6.72;;;2.90;;
82873;SDS011;72647;51.622;7.540;2024-02-21T09:15:04;6.22;;;3.13;;
82873;SDS011;72647;51.622;7.540;2024-02-21T09:17:04;5.68;;;2.53;;
82873;SDS011;72647;51.622;7.540;2024-02-21T09:19:04;8.23;;;3.38;;
82873;SDS011;72647;51.622;7.540;2024-02-21T09:21:04;7.87;;;2.67;;
82873;SDS011;72647;51.622;7.540;2024-02-21T09:23:05;6.53;;;2.75;;
82873;SDS011;72647;51.622;7.540;2024-02-21T09:25:05;8.47;;;2.33;;
82873;SDS011;72647;51.622;7.540;2024-02-21T09:27:06;6.68;;;2.70;;
82873;SDS011;72647;51.622;7.540;2024-02-21T09:29:06;8.13;;;3.10;;
82873;SDS011;72647;51.622;7.540;2024-02-21T09:31:06;10.23;;;3.13;;
82873;SDS011;72647;51.622;7.540;2024-02-21T09:33:07;9.80;;;3.33;;
82873;SDS011;72647;51.622;7.540;2024-02-21T09:35:07;12.37;;;3.30;;
82873;SDS011;72647;51.622;7.540;2024-02-21T09:37:07;7.97;;;3.40;;
82873;SDS011;72647;51.622;7.540;2024-02-21T09:39:08;10.38;;;3.97;;
82873;SDS011;72647;51.622;7.540;2024-02-21T09:41:15;9.55;;;3.42;;
82873;SDS011;72647;51.622;7.540;2024-02-21T09:43:17;13.65;;;4.47;;
82873;SDS011;72647;51.622;7.540;2024-02-21T09:45:21;11.13;;;3.90;;
82873;SDS011;72647;51.622;7.540;2024-02-21T09:49:32;9.97;;;4.20;;
82873;SDS011;72647;51.622;7.540;2024-02-21T09:51:37;12.43;;;4.43;;
82873;SDS011;72647;51.622;7.540;2024-02-21T09:53:38;13.98;;;4.88;;
82873;SDS011;72647;51.622;7.540;2024-02-21T09:55:41;13.65;;;4.00;;
82873;SDS011;72647;51.622;7.540;2024-02-21T09:57:44;10.93;;;4.28;;
82873;SDS011;72647;51.622;7.540;2024-02-21T09:59:44;12.90;;;5.53;;
82873;SDS011;72647;51.622;7.540;2024-02-21T10:01:45;14.40;;;4.93;;
82873;SDS011;72647;51.622;7.540;2024-02-21T10:03:50;12.23;;;5.68;;
82873;SDS011;72647;51.622;7.540;2024-02-21T10:05:50;13.85;;;6.10;;
82873;SDS011;72647;51.622;7.540;2024-02-21T10:07:51;14.98;;;5.60;;
82873;SDS011;72647;51.622;7.540;2024-02-21T10:10:03;15.85;;;6.55;;
82873;SDS011;72647;51.622;7.540;2024-02-21T10:12:10;13.90;;;5.82;;
82873;SDS011;72647;51.622;7.540;2024-02-21T10:14:11;15.07;;;6.25;;
82873;SDS011;72647;51.622;7.540;2024-02-21T10:16:11;17.50;;;6.88;;
82873;SDS011;72647;51.622;7.540;2024-02-21T10:18:11;12.30;;;6.03;;
82873;SDS011;72647;51.622;7.540;2024-02-21T10:20:12;14.48;;;6.07;;
82873;SDS011;72647;51.622;7.540;2024-02-21T10:22:14;16.05;;;6.82;;
82873;SDS011;72647;51.622;7.540;2024-02-21T10:24:15;14.15;;;6.63;;
82873;SDS011;72647;51.622;7.540;2024-02-21T10:26:25;14.00;;;6.78;;
82873;SDS011;72647;51.622;7.540;2024-02-21T10:28:26;13.27;;;6.50;;
82873;SDS011;72647;51.622;7.540;2024-02-21T10:30:26;14.43;;;7.07;;
82873;SDS011;72647;51.622;7.540;2024-02-21T10:32:26;13.57;;;5.93;;
82873;SDS011;72647;51.622;7.540;2024-02-21T10:34:28;12.30;;;6.82;;
82873;SDS011;72647;51.622;7.540;2024-02-21T10:36:28;17.85;;;7.68;;
82873;SDS011;72647;51.622;7.540;2024-02-21T10:38:29;14.68;;;6.60;;
82873;SDS011;72647;51.622;7.540;2024-02-21T10:40:29;15.50;;;7.20;;
82873;SDS011;72647;51.622;7.540;2024-02-21T10:42:34;15.15;;;7.50;;
82873;SDS011;72647;51.622;7.540;2024-02-21T10:44:39;17.63;;;7.43;;
82873;SDS011;72647;51.622;7.540;2024-02-21T10:46:40;16.88;;;6.78;;
82873;SDS011;72647;51.622;7.540;2024-02-21T10:48:43;14.30;;;6.97;;
82873;SDS011;72647;51.622;7.540;2024-02-21T10:50:56;11.02;;;6.75;;
82873;SDS011;72647;51.622;7.540;2024-02-21T10:53:05;13.23;;;7.20;;
82873;SDS011;72647;51.622;7.540;2024-02-21T10:55:10;22.40;;;7.35;;
82873;SDS011;72647;51.622;7.540;2024-02-21T10:57:16;16.00;;;6.75;;
82873;SDS011;72647;51.622;7.540;2024-02-21T10:59:16;18.52;;;6.30;;
82873;SDS011;72647;51.622;7.540;2024-02-21T11:01:17;12.75;;;7.15;;
82873;SDS011;72647;51.622;7.540;2024-02-21T11:03:18;14.10;;;7.28;;
82873;SDS011;72647;51.622;7.540;2024-02-21T11:05:19;13.65;;;6.38;;
82873;SDS011;72647;51.622;7.540;2024-02-21T11:07:19;15.05;;;7.90;;
82873;SDS011;72647;51.622;7.540;2024-02-21T11:09:28;15.98;;;6.75;;
82873;SDS011;72647;51.622;7.540;2024-02-21T11:11:30;19.83;;;7.00;;
82873;SDS011;72647;51.622;7.540;2024-02-21T11:13:36;12.38;;;6.18;;
82873;SDS011;72647;51.622;7.540;2024-02-21T11:15:37;18.60;;;6.57;;
82873;SDS011;72647;51.622;7.540;2024-02-21T11:17:37;11.63;;;5.22;;
82873;SDS011;72647;51.622;7.540;2024-02-21T11:19:37;10.07;;;5.30;;
82873;SDS011;72647;51.622;7.540;2024-02-21T11:21:38;16.83;;;6.83;;
82873;SDS011;72647;51.622;7.540;2024-02-21T11:23:38;14.43;;;4.68;;
82873;SDS011;72647;51.622;7.540;2024-02-21T11:25:38;9.73;;;5.00;;
82873;SDS011;72647;51.622;7.540;2024-02-21T11:27:45;6.37;;;4.03;;
82873;SDS011;72647;51.622;7.540;2024-02-21T11:31:45;9.27;;;4.50;;
82873;SDS011;72647;51.622;7.540;2024-02-21T11:33:46;10.35;;;4.32;;
82873;SDS011;72647;51.622;7.540;2024-02-21T11:35:48;7.95;;;3.97;;
82873;SDS011;72647;51.622;7.540;2024-02-21T11:37:48;8.23;;;4.18;;
82873;SDS011;72647;51.622;7.540;2024-02-21T11:39:49;9.82;;;3.53;;
82873;SDS011;72647;51.622;7.540;2024-02-21T11:42:05;7.72;;;3.88;;
82873;SDS011;72647;51.622;7.540;2024-02-21T11:44:05;8.98;;;3.92;;
82873;SDS011;72647;51.622;7.540;2024-02-21T11:46:05;8.80;;;4.33;;
82873;SDS011;72647;51.622;7.540;2024-02-21T11:48:06;14.15;;;5.28;;
82873;SDS011;72647;51.622;7.540;2024-02-21T11:50:09;10.38;;;4.32;;
82873;SDS011;72647;51.622;7.540;2024-02-21T11:52:10;10.75;;;4.35;;
82873;SDS011;72647;51.622;7.540;2024-02-21T11:54:10;9.13;;;4.43;;
82873;SDS011;72647;51.622;7.540;2024-02-21T11:56:11;8.90;;;4.35;;
82873;SDS011;72647;51.622;7.540;2024-02-21T11:58:11;12.13;;;4.30;;
82873;SDS011;72647;51.622;7.540;2024-02-21T12:00:12;10.23;;;4.28;;
82873;SDS011;72647;51.622;7.540;2024-02-21T12:02:14;8.98;;;4.55;;
82873;SDS011;72647;51.622;7.540;2024-02-21T12:04:15;9.13;;;4.40;;
82873;SDS011;72647;51.622;7.540;2024-02-21T12:06:17;12.13;;;4.35;;
82873;SDS011;72647;51.622;7.540;2024-02-21T12:08:22;9.23;;;4.68;;
82873;SDS011;72647;51.622;7.540;2024-02-21T12:10:22;9.63;;;4.70;;
82873;SDS011;72647;51.622;7.540;2024-02-21T12:12:22;10.63;;;4.80;;
82873;SDS011;72647;51.622;7.540;2024-02-21T12:14:24;9.88;;;4.35;;
82873;SDS011;72647;51.622;7.540;2024-02-21T12:16:24;8.52;;;3.95;;
82873;SDS011;72647;51.622;7.540;2024-02-21T12:18:24;8.10;;;5.57;;